Time;durP1;ratioP1;P1;durP2;ratioP2;P2;SDS_P1;SDS_P2;PMS_P1;PMS_P2;Temp;Humidity;BMP_temperature;BMP_pressure;BME280_temperature;BME280_humidity;BME280_pressure;Samples;Min_cycle;Max_cycle;Signal;HPM_P1;HPM_P2
2023/07/26 00:01:54;;;;;;;;;;;29.90;51.80;;;;;;5042992;28;87132;-54
2023/07/26 00:04:19;;;;;;;;;;;29.90;51.70;;;;;;5042298;28;88067;-58
2023/07/26 00:06:45;;;;;;;;;;;29.90;51.80;;;;;;5042455;28;87312;-53
2023/07/26 00:09:11;;;;;;;;;;;29.90;51.80;;;;;;5042475;28;88319;-55
2023/07/26 00:11:36;;;;;;;;;;;29.90;51.80;;;;;;5044202;28;88358;-56
2023/07/26 00:14:03;;;;;;;;;;;29.90;51.80;;;;;;5041751;28;87632;-55
2023/07/26 00:16:30;;;;;;;;;;;29.80;51.70;;;;;;5043002;28;87069;-57
2023/07/26 00:18:56;;;;;;;;;;;29.90;51.70;;;;;;5040923;28;88195;-59
2023/07/26 00:21:22;;;;;;;;;;;29.80;51.70;;;;;;5042438;27;86734;-57
2023/07/26 00:23:47;;;;;;;;;;;29.80;51.80;;;;;;5041355;28;87070;-57
2023/07/26 00:26:13;;;;;;;;;;;29.80;51.80;;;;;;5040935;28;87230;-58
2023/07/26 00:28:38;;;;;;;;;;;29.80;51.70;;;;;;5040227;28;88611;-59
2023/07/26 00:31:04;;;;;;;;;;;29.80;51.70;;;;;;5045164;28;88435;-56
2023/07/26 00:33:29;;;;;;;;;;;29.80;51.60;;;;;;5040950;28;88259;-55
2023/07/26 00:35:55;;;;;;;;;;;29.80;51.70;;;;;;5042315;28;87516;-57
2023/07/26 00:38:20;;;;;;;;;;;29.70;51.60;;;;;;5040468;28;89427;-56
2023/07/26 00:40:46;;;;;;;;;;;29.80;51.70;;;;;;5041571;28;86850;-56
2023/07/26 00:43:11;;;;;;;;;;;29.70;51.60;;;;;;5041571;28;87422;-56
2023/07/26 00:45:38;;;;;;;;;;;29.70;51.60;;;;;;5042495;28;87251;-57
2023/07/26 00:48:04;;;;;;;;;;;29.80;51.70;;;;;;5042352;28;87092;-56
2023/07/26 00:50:30;;;;;;;;;;;29.70;51.70;;;;;;5042139;28;88936;-57
2023/07/26 00:52:55;;;;;;;;;;;29.70;51.70;;;;;;5043388;28;89393;-58
2023/07/26 00:55:21;;;;;;;;;;;29.70;51.70;;;;;;5041998;28;89078;-56
2023/07/26 00:57:47;;;;;;;;;;;29.70;51.70;;;;;;5040394;28;88177;-58
2023/07/26 01:00:13;;;;;;;;;;;29.70;51.70;;;;;;5041645;28;87097;-53
2023/07/26 01:02:39;;;;;;;;;;;29.70;51.70;;;;;;5041168;28;87632;-55
2023/07/26 01:05:05;;;;;;;;;;;29.70;51.70;;;;;;5041817;28;88100;-58
2023/07/26 01:07:51;;;;;;;;;;;29.70;51.60;;;;;;5042071;27;87030;-56
2023/07/26 01:10:19;;;;;;;;;;;29.70;51.60;;;;;;5020177;28;88887;-56
2023/07/26 01:12:58;;;;;;;;;;;29.60;51.60;;;;;;5040926;28;88147;-57
2023/07/26 01:15:27;;;;;;;;;;;29.70;51.70;;;;;;5044654;28;87033;-57
2023/07/26 01:18:12;;;;;;;;;;;29.60;51.60;;;;;;5039786;28;90213;-58
2023/07/26 01:20:38;;;;;;;;;;;29.60;51.60;;;;;;5037867;28;87046;-56
2023/07/26 01:23:04;;;;;;;;;;;29.60;51.60;;;;;;5037654;28;87170;-58
2023/07/26 01:25:29;;;;;;;;;;;29.60;51.60;;;;;;5041492;28;88040;-56
2023/07/26 01:27:55;;;;;;;;;;;29.60;51.60;;;;;;5040584;28;86966;-59
2023/07/26 01:30:20;;;;;;;;;;;29.60;51.60;;;;;;5041746;28;87145;-55
2023/07/26 01:32:48;;;;;;;;;;;29.60;51.60;;;;;;5038900;28;88084;-56
2023/07/26 01:35:14;;;;;;;;;;;29.60;51.60;;;;;;5042919;28;86256;-57
2023/07/26 01:37:40;;;;;;;;;;;29.60;51.60;;;;;;5046718;28;87243;-56
2023/07/26 01:40:06;;;;;;;;;;;29.60;51.70;;;;;;5044001;28;87084;-56
2023/07/26 01:42:32;;;;;;;;;;;29.60;51.70;;;;;;5040202;28;88360;-57
2023/07/26 01:45:02;;;;;;;;;;;29.60;51.70;;;;;;5040603;28;88180;-56
2023/07/26 01:47:27;;;;;;;;;;;29.60;51.70;;;;;;5045251;27;87719;-54
2023/07/26 01:49:53;;;;;;;;;;;29.60;51.60;;;;;;5044429;28;87419;-59
2023/07/26 01:52:18;;;;;;;;;;;29.50;51.60;;;;;;5044395;28;88153;-56
2023/07/26 01:54:44;;;;;;;;;;;29.50;51.60;;;;;;5044864;28;86994;-56
2023/07/26 01:57:09;;;;;;;;;;;29.60;51.60;;;;;;5044733;28;87573;-56
2023/07/26 01:59:35;;;;;;;;;;;29.50;51.60;;;;;;5047055;28;87357;-56
2023/07/26 02:02:00;;;;;;;;;;;29.50;51.60;;;;;;5044686;28;87243;-56
2023/07/26 02:04:26;;;;;;;;;;;29.50;51.60;;;;;;5041703;28;89346;-58
2023/07/26 02:06:52;;;;;;;;;;;29.50;51.60;;;;;;5043808;28;88457;-56
2023/07/26 02:09:18;;;;;;;;;;;29.50;51.60;;;;;;5044383;28;89747;-55
2023/07/26 02:11:43;;;;;;;;;;;29.50;51.70;;;;;;5044256;28;88369;-57
2023/07/26 02:14:09;;;;;;;;;;;29.50;51.70;;;;;;5043027;28;87204;-58
2023/07/26 02:16:34;;;;;;;;;;;29.50;51.80;;;;;;5044495;28;87839;-58
2023/07/26 02:18:59;;;;;;;;;;;29.50;51.70;;;;;;5043100;28;87988;-57
2023/07/26 02:21:25;;;;;;;;;;;29.50;51.80;;;;;;5047466;28;86983;-57
2023/07/26 02:23:50;;;;;;;;;;;29.40;51.80;;;;;;5044486;28;87583;-57
2023/07/26 02:26:16;;;;;;;;;;;29.40;51.80;;;;;;5044445;28;87535;-59
2023/07/26 02:28:41;;;;;;;;;;;29.40;51.80;;;;;;5042732;28;87381;-58
2023/07/26 02:31:07;;;;;;;;;;;29.40;51.80;;;;;;5043466;28;88985;-57
2023/07/26 02:33:33;;;;;;;;;;;29.30;51.90;;;;;;5043728;28;87870;-58
2023/07/26 02:35:59;;;;;;;;;;;29.40;51.90;;;;;;5044095;28;87019;-56
2023/07/26 02:38:25;;;;;;;;;;;29.30;51.80;;;;;;5043531;28;89585;-58
2023/07/26 02:40:50;;;;;;;;;;;29.30;51.90;;;;;;5046678;28;87102;-56
2023/07/26 02:43:16;;;;;;;;;;;29.30;51.90;;;;;;5042509;28;87423;-56
2023/07/26 02:45:42;;;;;;;;;;;29.30;52.10;;;;;;5044201;28;87108;-57
2023/07/26 02:48:07;;;;;;;;;;;29.30;52.10;;;;;;5043976;27;87512;-56
2023/07/26 02:50:33;;;;;;;;;;;29.30;52.10;;;;;;5042109;28;88152;-55
2023/07/26 02:52:59;;;;;;;;;;;29.30;52.10;;;;;;5043920;28;87034;-53
2023/07/26 02:55:24;;;;;;;;;;;29.20;52.10;;;;;;5033609;28;88819;-58
2023/07/26 02:57:50;;;;;;;;;;;29.20;52.10;;;;;;5043294;28;88035;-56
2023/07/26 03:00:16;;;;;;;;;;;29.20;52.10;;;;;;5042869;28;87151;-56
2023/07/26 03:02:42;;;;;;;;;;;29.20;52.10;;;;;;5046475;28;87434;-58
2023/07/26 03:05:08;;;;;;;;;;;29.20;52.00;;;;;;5041585;28;87054;-57
2023/07/26 03:07:33;;;;;;;;;;;29.20;52.10;;;;;;5043607;28;88707;-57
2023/07/26 03:09:59;;;;;;;;;;;29.20;52.20;;;;;;5043378;28;87799;-58
2023/07/26 03:12:25;;;;;;;;;;;29.10;52.20;;;;;;5044170;28;86439;-55
2023/07/26 03:14:50;;;;;;;;;;;29.10;52.20;;;;;;5042857;28;87171;-58
2023/07/26 03:17:16;;;;;;;;;;;29.10;52.30;;;;;;5043017;28;87177;-57
2023/07/26 03:19:41;;;;;;;;;;;29.10;52.30;;;;;;5040083;28;88227;-58
2023/07/26 03:22:07;;;;;;;;;;;29.10;52.20;;;;;;5043539;28;88885;-58
2023/07/26 03:24:32;;;;;;;;;;;29.10;52.20;;;;;;5045670;28;88016;-57
2023/07/26 03:26:58;;;;;;;;;;;29.10;52.40;;;;;;5043532;28;87394;-57
2023/07/26 03:29:24;;;;;;;;;;;29.10;52.30;;;;;;5041813;28;88014;-57
2023/07/26 03:31:49;;;;;;;;;;;29.10;52.30;;;;;;5041528;28;87266;-57
2023/07/26 03:34:15;;;;;;;;;;;29.10;52.30;;;;;;5041157;28;88256;-58
2023/07/26 03:36:40;;;;;;;;;;;29.10;52.40;;;;;;5039968;28;87146;-56
2023/07/26 03:39:06;;;;;;;;;;;29.10;52.40;;;;;;5043329;28;87679;-57
2023/07/26 03:41:32;;;;;;;;;;;29.10;52.30;;;;;;5039696;28;87837;-57
2023/07/26 03:43:57;;;;;;;;;;;29.10;52.40;;;;;;5039022;28;89166;-57
2023/07/26 03:46:23;;;;;;;;;;;29.00;52.30;;;;;;5040978;28;87097;-57
2023/07/26 03:48:48;;;;;;;;;;;29.10;52.40;;;;;;5042668;28;88195;-56
2023/07/26 03:51:14;;;;;;;;;;;29.00;52.50;;;;;;5041570;27;88869;-58
2023/07/26 03:53:39;;;;;;;;;;;29.00;52.50;;;;;;5040072;28;88707;-56
2023/07/26 03:56:05;;;;;;;;;;;29.00;52.50;;;;;;5037266;28;88214;-56
2023/07/26 03:58:30;;;;;;;;;;;29.00;52.50;;;;;;5040203;28;87744;-58
2023/07/26 04:00:55;;;;;;;;;;;29.00;52.40;;;;;;5042450;27;87401;-54
2023/07/26 04:03:21;;;;;;;;;;;29.00;52.50;;;;;;5038854;28;88069;-58
2023/07/26 04:05:47;;;;;;;;;;;29.00;52.50;;;;;;5038577;28;87238;-56
2023/07/26 04:08:12;;;;;;;;;;;29.00;52.40;;;;;;5042886;27;90662;-58
2023/07/26 04:10:38;;;;;;;;;;;29.00;52.50;;;;;;5039980;28;88204;-58
2023/07/26 04:13:03;;;;;;;;;;;29.00;52.40;;;;;;5038583;28;87620;-55
2023/07/26 04:15:29;;;;;;;;;;;29.00;52.40;;;;;;5038741;28;87995;-57
2023/07/26 04:17:55;;;;;;;;;;;29.00;52.50;;;;;;5043380;27;87142;-57
2023/07/26 04:20:20;;;;;;;;;;;29.00;52.40;;;;;;5039243;28;88835;-57
2023/07/26 04:22:46;;;;;;;;;;;29.00;52.50;;;;;;5036625;28;88656;-56
2023/07/26 04:25:11;;;;;;;;;;;29.00;52.40;;;;;;5043010;28;86500;-56
2023/07/26 04:27:37;;;;;;;;;;;29.00;52.40;;;;;;5042145;27;87077;-58
2023/07/26 04:30:03;;;;;;;;;;;29.00;52.40;;;;;;5041310;28;88456;-57
2023/07/26 04:32:28;;;;;;;;;;;29.00;52.40;;;;;;5035691;28;89324;-56
2023/07/26 04:34:54;;;;;;;;;;;29.00;52.40;;;;;;5042243;28;88030;-58
2023/07/26 04:37:19;;;;;;;;;;;29.00;52.40;;;;;;5041927;27;87225;-58
2023/07/26 04:39:45;;;;;;;;;;;28.90;52.40;;;;;;5040656;28;88892;-58
2023/07/26 04:42:11;;;;;;;;;;;29.00;52.40;;;;;;5039280;28;88180;-54
2023/07/26 04:44:36;;;;;;;;;;;29.00;52.40;;;;;;5041610;28;87284;-55
2023/07/26 04:47:02;;;;;;;;;;;29.00;52.40;;;;;;5038976;27;87469;-56
2023/07/26 04:49:27;;;;;;;;;;;28.90;52.40;;;;;;5041907;28;88775;-57
2023/07/26 04:51:53;;;;;;;;;;;28.90;52.40;;;;;;5039325;27;87141;-57
2023/07/26 04:54:18;;;;;;;;;;;29.00;52.40;;;;;;5041964;28;88008;-59
2023/07/26 04:56:44;;;;;;;;;;;29.00;52.40;;;;;;5041696;27;88126;-54
2023/07/26 04:59:09;;;;;;;;;;;29.00;52.40;;;;;;5036718;28;89552;-57
2023/07/26 05:01:35;;;;;;;;;;;28.90;52.30;;;;;;5038517;28;88792;-57
2023/07/26 05:04:01;;;;;;;;;;;29.00;52.30;;;;;;5041825;28;87814;-57
2023/07/26 05:06:26;;;;;;;;;;;28.90;52.30;;;;;;5042220;27;88747;-57
2023/07/26 05:08:52;;;;;;;;;;;28.90;52.40;;;;;;5038950;28;89259;-55
2023/07/26 05:11:20;;;;;;;;;;;28.90;52.40;;;;;;5041685;27;87227;-58
2023/07/26 05:13:46;;;;;;;;;;;28.90;52.30;;;;;;5045636;28;87236;-55
2023/07/26 05:16:11;;;;;;;;;;;28.90;52.20;;;;;;5043245;27;87161;-57
2023/07/26 05:18:37;;;;;;;;;;;29.00;52.30;;;;;;5042211;28;87628;-55
2023/07/26 05:21:03;;;;;;;;;;;28.90;52.30;;;;;;5038548;28;90448;-58
2023/07/26 05:23:28;;;;;;;;;;;28.90;52.40;;;;;;5045327;28;87067;-56
2023/07/26 05:25:54;;;;;;;;;;;28.90;52.40;;;;;;5044847;27;87344;-58
2023/07/26 05:28:19;;;;;;;;;;;28.90;52.40;;;;;;5041636;28;88045;-57
2023/07/26 05:30:45;;;;;;;;;;;28.90;52.30;;;;;;5041422;27;87610;-52
2023/07/26 05:33:10;;;;;;;;;;;28.90;52.40;;;;;;5047632;28;87650;-58
2023/07/26 05:35:37;;;;;;;;;;;28.90;52.30;;;;;;5044193;27;88940;-58
2023/07/26 05:38:03;;;;;;;;;;;28.90;53.00;;;;;;5054733;27;90295;-52
2023/07/26 05:40:28;;;;;;;;;;;28.90;52.30;;;;;;5044224;28;89209;-57
2023/07/26 05:42:54;;;;;;;;;;;29.00;52.40;;;;;;5044513;27;87192;-57
2023/07/26 05:45:19;;;;;;;;;;;29.00;52.30;;;;;;5040961;28;88450;-56
2023/07/26 05:47:45;;;;;;;;;;;29.00;52.30;;;;;;5040693;28;87461;-57
2023/07/26 05:50:10;;;;;;;;;;;29.00;52.30;;;;;;5044739;28;87097;-54
2023/07/26 05:52:36;;;;;;;;;;;28.90;52.20;;;;;;5046182;27;87265;-58
2023/07/26 05:55:02;;;;;;;;;;;28.90;52.30;;;;;;5044206;28;88082;-54
2023/07/26 05:57:27;;;;;;;;;;;29.00;52.50;;;;;;5042975;28;87886;-56
2023/07/26 05:59:53;;;;;;;;;;;28.90;52.50;;;;;;5041652;28;91399;-56
2023/07/26 06:02:18;;;;;;;;;;;29.00;52.30;;;;;;5042410;28;86454;-56
2023/07/26 06:04:45;;;;;;;;;;;28.90;52.40;;;;;;5041865;28;87110;-57
2023/07/26 06:07:11;;;;;;;;;;;28.90;52.40;;;;;;5039898;28;88980;-56
2023/07/26 06:09:36;;;;;;;;;;;28.90;52.50;;;;;;5043758;28;88165;-57
2023/07/26 06:12:02;;;;;;;;;;;28.90;52.50;;;;;;5046229;27;88274;-56
2023/07/26 06:14:28;;;;;;;;;;;28.90;52.50;;;;;;5041256;28;88263;-58
2023/07/26 06:16:53;;;;;;;;;;;28.90;52.50;;;;;;5043800;28;87392;-54
2023/07/26 06:19:19;;;;;;;;;;;28.90;52.50;;;;;;5039329;28;87194;-58
2023/07/26 06:21:44;;;;;;;;;;;28.90;52.60;;;;;;5043785;27;87511;-57
2023/07/26 06:24:10;;;;;;;;;;;28.90;52.60;;;;;;5041858;27;87375;-57
2023/07/26 06:26:35;;;;;;;;;;;28.90;52.60;;;;;;5041141;28;87431;-58
2023/07/26 06:29:01;;;;;;;;;;;28.90;52.50;;;;;;5044281;28;88152;-54
2023/07/26 06:31:26;;;;;;;;;;;28.90;52.50;;;;;;5042605;27;88225;-57
2023/07/26 06:33:52;;;;;;;;;;;28.90;52.50;;;;;;5041009;27;88918;-56
2023/07/26 06:36:17;;;;;;;;;;;28.90;52.40;;;;;;5040308;28;88477;-54
2023/07/26 06:38:43;;;;;;;;;;;28.90;52.50;;;;;;5046446;28;88717;-53
2023/07/26 06:41:08;;;;;;;;;;;28.90;52.50;;;;;;5042379;28;87187;-57
2023/07/26 06:43:34;;;;;;;;;;;28.90;52.40;;;;;;5041475;28;88407;-56
2023/07/26 06:46:00;;;;;;;;;;;28.90;52.50;;;;;;5036784;28;88005;-56
2023/07/26 06:48:25;;;;;;;;;;;28.90;52.50;;;;;;5043139;28;87133;-55
2023/07/26 06:50:51;;;;;;;;;;;29.00;52.50;;;;;;5045314;27;86543;-56
2023/07/26 06:53:16;;;;;;;;;;;29.00;52.50;;;;;;5040905;28;88248;-55
2023/07/26 06:55:42;;;;;;;;;;;29.00;52.50;;;;;;5038820;27;87532;-56
2023/07/26 06:58:07;;;;;;;;;;;28.90;52.30;;;;;;5045842;28;88010;-56
2023/07/26 07:00:33;;;;;;;;;;;29.00;52.40;;;;;;5044496;27;87166;-55
2023/07/26 07:02:59;;;;;;;;;;;29.00;52.40;;;;;;5040479;28;87383;-58
2023/07/26 07:05:25;;;;;;;;;;;29.00;52.30;;;;;;5036949;28;88176;-56
2023/07/26 07:07:51;;;;;;;;;;;29.00;52.20;;;;;;5043509;28;87138;-55
2023/07/26 07:10:16;;;;;;;;;;;29.00;52.10;;;;;;5041966;28;87965;-56
2023/07/26 07:12:42;;;;;;;;;;;29.00;52.10;;;;;;5040669;28;88033;-56
2023/07/26 07:15:08;;;;;;;;;;;29.00;52.10;;;;;;5039932;28;86496;-58
2023/07/26 07:17:34;;;;;;;;;;;29.00;52.20;;;;;;5041905;28;88336;-58
2023/07/26 07:20:00;;;;;;;;;;;29.00;52.10;;;;;;5046077;27;87888;-58
2023/07/26 07:22:25;;;;;;;;;;;29.00;51.90;;;;;;5039826;27;89328;-58
2023/07/26 07:24:54;;;;;;;;;;;29.00;51.90;;;;;;5036254;28;87990;-56
2023/07/26 07:27:23;;;;;;;;;;;29.00;51.90;;;;;;5042722;28;87078;-55
2023/07/26 07:29:49;;;;;;;;;;;29.00;51.90;;;;;;5043366;27;87558;-56
2023/07/26 07:32:14;;;;;;;;;;;29.00;51.90;;;;;;5039347;28;87608;-53
2023/07/26 07:34:40;;;;;;;;;;;29.00;51.80;;;;;;5042456;28;87023;-55
2023/07/26 07:37:05;;;;;;;;;;;29.00;51.80;;;;;;5043152;28;87028;-57
2023/07/26 07:39:31;;;;;;;;;;;29.00;51.80;;;;;;5043314;28;87440;-53
2023/07/26 07:41:57;;;;;;;;;;;29.00;51.70;;;;;;5045941;28;87047;-57
2023/07/26 07:44:22;;;;;;;;;;;29.00;51.60;;;;;;5042698;28;88019;-57
2023/07/26 07:46:48;;;;;;;;;;;29.00;51.60;;;;;;5042051;28;88074;-56
2023/07/26 07:49:14;;;;;;;;;;;29.00;51.40;;;;;;5040706;28;89794;-56
2023/07/26 07:51:39;;;;;;;;;;;29.10;51.50;;;;;;5041941;28;89114;-57
2023/07/26 07:54:05;;;;;;;;;;;29.00;51.40;;;;;;5042123;28;87168;-57
2023/07/26 07:56:30;;;;;;;;;;;29.00;51.40;;;;;;5042632;28;87442;-57
2023/07/26 07:58:56;;;;;;;;;;;29.00;51.40;;;;;;5042158;28;87910;-58
2023/07/26 08:01:21;;;;;;;;;;;29.00;51.40;;;;;;5042413;28;87485;-55
2023/07/26 08:03:47;;;;;;;;;;;29.10;51.40;;;;;;5042441;28;89243;-58
2023/07/26 08:06:13;;;;;;;;;;;29.10;52.00;;;;;;5041855;28;87082;-57
2023/07/26 08:08:39;;;;;;;;;;;29.00;51.30;;;;;;5039860;28;88318;-58
2023/07/26 08:11:05;;;;;;;;;;;29.10;51.40;;;;;;5033967;28;89104;-58
2023/07/26 08:13:30;;;;;;;;;;;29.00;51.30;;;;;;5042268;28;87395;-55
2023/07/26 08:15:58;;;;;;;;;;;29.10;51.30;;;;;;5043852;27;87834;-57
2023/07/26 08:18:24;;;;;;;;;;;29.10;50.90;;;;;;5041236;28;87878;-56
2023/07/26 08:20:49;;;;;;;;;;;29.10;51.00;;;;;;5039127;28;87991;-58
2023/07/26 08:23:15;;;;;;;;;;;29.10;50.90;;;;;;5037344;28;88816;-57
2023/07/26 08:25:40;;;;;;;;;;;29.10;50.90;;;;;;5045058;28;88256;-58
2023/07/26 08:28:06;;;;;;;;;;;29.10;51.00;;;;;;5044144;27;87241;-55
2023/07/26 08:30:32;;;;;;;;;;;29.10;50.90;;;;;;5039004;28;88966;-58
2023/07/26 08:32:57;;;;;;;;;;;29.10;50.80;;;;;;5035774;28;87817;-57
2023/07/26 08:35:23;;;;;;;;;;;29.10;50.90;;;;;;5041619;28;88373;-53
2023/07/26 08:37:48;;;;;;;;;;;29.10;50.70;;;;;;5042716;27;88059;-54
2023/07/26 08:40:14;;;;;;;;;;;29.10;50.90;;;;;;5042066;28;87115;-55
2023/07/26 08:42:40;;;;;;;;;;;29.10;50.70;;;;;;5039515;28;87939;-56
2023/07/26 08:45:07;;;;;;;;;;;29.10;50.60;;;;;;5037624;28;88868;-57
2023/07/26 08:47:34;;;;;;;;;;;29.10;50.50;;;;;;5045264;28;87152;-55
2023/07/26 08:50:00;;;;;;;;;;;29.10;50.60;;;;;;5042388;27;88190;-55
2023/07/26 08:52:26;;;;;;;;;;;29.10;50.60;;;;;;5039070;28;86512;-56
2023/07/26 08:54:52;;;;;;;;;;;29.20;50.60;;;;;;5037286;28;88170;-58
2023/07/26 08:57:18;;;;;;;;;;;29.10;50.50;;;;;;5041855;28;88246;-59
2023/07/26 08:59:43;;;;;;;;;;;29.20;50.50;;;;;;5041627;27;88107;-57
2023/07/26 09:02:10;;;;;;;;;;;29.20;50.50;;;;;;5039608;28;88069;-58
2023/07/26 09:04:36;;;;;;;;;;;29.20;50.40;;;;;;5036009;28;88019;-55
2023/07/26 09:07:02;;;;;;;;;;;29.20;50.50;;;;;;5044729;28;87166;-56
2023/07/26 09:09:28;;;;;;;;;;;29.20;50.50;;;;;;5040475;27;89816;-57
2023/07/26 09:11:53;;;;;;;;;;;29.20;50.50;;;;;;5038916;27;87723;-56
2023/07/26 09:14:19;;;;;;;;;;;29.20;50.50;;;;;;5040430;28;87393;-55
2023/07/26 09:16:44;;;;;;;;;;;29.20;50.20;;;;;;5041866;27;88772;-58
2023/07/26 09:19:10;;;;;;;;;;;29.20;50.30;;;;;;5031479;27;87128;-58
2023/07/26 09:21:36;;;;;;;;;;;29.30;50.30;;;;;;5038959;28;87821;-55
2023/07/26 09:24:03;;;;;;;;;;;29.30;50.10;;;;;;5036323;28;88342;-56
2023/07/26 09:26:41;;;;;;;;;;;29.30;50.20;;;;;;5040356;27;87096;-56
2023/07/26 09:29:11;;;;;;;;;;;29.30;50.30;;;;;;5041076;28;88909;-56
2023/07/26 09:31:38;;;;;;;;;;;29.30;50.40;;;;;;5037318;28;87699;-56
2023/07/26 09:34:08;;;;;;;;;;;29.30;50.50;;;;;;5041518;28;87392;-56
2023/07/26 09:36:43;;;;;;;;;;;29.30;50.50;;;;;;5042113;27;88348;-56
2023/07/26 09:39:09;;;;;;;;;;;29.30;50.40;;;;;;5035769;28;87255;-55
2023/07/26 09:41:35;;;;;;;;;;;29.30;50.30;;;;;;5035293;28;87968;-55
2023/07/26 09:44:00;;;;;;;;;;;29.40;50.40;;;;;;5040967;28;88120;-56
2023/07/26 09:46:26;;;;;;;;;;;29.30;50.40;;;;;;5040614;27;87101;-57
2023/07/26 09:48:58;;;;;;;;;;;29.40;50.60;;;;;;5037720;28;88506;-56
2023/07/26 09:51:27;;;;;;;;;;;29.40;50.60;;;;;;5038116;28;87791;-53
2023/07/26 09:53:54;;;;;;;;;;;29.40;50.50;;;;;;5040811;28;87445;-53
2023/07/26 09:56:20;;;;;;;;;;;29.40;50.50;;;;;;5039855;27;88330;-54
2023/07/26 09:58:48;;;;;;;;;;;29.40;50.50;;;;;;5041291;28;87202;-57
2023/07/26 10:01:14;;;;;;;;;;;29.40;50.40;;;;;;5039192;28;86901;-57
2023/07/26 10:03:41;;;;;;;;;;;29.40;50.30;;;;;;5044425;28;88313;-57
2023/07/26 10:06:07;;;;;;;;;;;29.50;50.20;;;;;;5044725;27;86273;-58
2023/07/26 10:08:34;;;;;;;;;;;29.50;50.30;;;;;;5041811;28;88569;-56
2023/07/26 10:11:00;;;;;;;;;;;29.50;50.30;;;;;;5040615;28;89259;-56
2023/07/26 10:13:27;;;;;;;;;;;29.50;50.30;;;;;;5046887;27;88103;-57
2023/07/26 10:15:53;;;;;;;;;;;29.50;50.30;;;;;;5043754;27;88531;-56
2023/07/26 10:18:19;;;;;;;;;;;29.50;50.40;;;;;;5042222;28;87145;-57
2023/07/26 10:20:45;;;;;;;;;;;29.50;50.20;;;;;;5037333;28;90741;-58
2023/07/26 10:23:11;;;;;;;;;;;29.50;50.10;;;;;;5044235;28;88210;-57
2023/07/26 10:25:38;;;;;;;;;;;29.60;49.90;;;;;;5042526;27;86999;-55
2023/07/26 10:28:04;;;;;;;;;;;29.60;49.90;;;;;;5041914;28;87392;-57
2023/07/26 10:30:29;;;;;;;;;;;29.60;50.60;;;;;;5039931;28;88413;-55
2023/07/26 10:32:55;;;;;;;;;;;29.60;49.70;;;;;;5044001;27;87013;-53
2023/07/26 10:35:31;;;;;;;;;;;29.60;49.80;;;;;;5044739;27;87389;-56
2023/07/26 10:38:01;;;;;;;;;;;29.70;49.90;;;;;;5039186;28;88020;-55
2023/07/26 10:40:47;;;;;;;;;;;29.70;49.90;;;;;;5043623;28;88318;-56
2023/07/26 10:43:36;;;;;;;;;;;29.70;49.90;;;;;;5042485;27;90218;-56
2023/07/26 10:46:07;;;;;;;;;;;29.70;49.70;;;;;;5040478;28;88182;-55
2023/07/26 10:48:39;;;;;;;;;;;29.70;49.70;;;;;;5039040;28;87471;-58
2023/07/26 10:51:21;;;;;;;;;;;29.70;49.50;;;;;;5043636;28;87262;-54
2023/07/26 10:53:46;;;;;;;;;;;29.70;49.80;;;;;;5043178;27;86994;-56
2023/07/26 10:56:18;;;;;;;;;;;29.70;49.50;;;;;;5044042;28;87417;-56
2023/07/26 10:58:56;;;;;;;;;;;29.80;49.60;;;;;;5041430;28;87030;-57
2023/07/26 11:01:32;;;;;;;;;;;29.80;49.60;;;;;;5039958;28;87016;-58
2023/07/26 11:03:58;;;;;;;;;;;29.80;49.50;;;;;;5040645;27;88886;-57
2023/07/26 11:06:43;;;;;;;;;;;29.80;49.60;;;;;;5038470;28;87305;-56
2023/07/26 11:09:19;;;;;;;;;;;29.80;49.60;;;;;;5043070;27;87420;-54
2023/07/26 11:11:51;;;;;;;;;;;29.80;49.60;;;;;;5037541;27;88101;-57
2023/07/26 11:14:17;;;;;;;;;;;29.80;49.70;;;;;;5039138;28;87165;-55
2023/07/26 11:16:42;;;;;;;;;;;29.90;49.70;;;;;;5037749;28;88423;-59
2023/07/26 11:19:08;;;;;;;;;;;29.90;50.10;;;;;;5045842;28;87739;-59
2023/07/26 11:21:35;;;;;;;;;;;29.90;49.30;;;;;;5045320;27;86429;-55
2023/07/26 11:24:01;;;;;;;;;;;29.90;49.40;;;;;;5043043;28;88029;-54
2023/07/26 11:26:27;;;;;;;;;;;29.90;49.10;;;;;;5041180;28;87162;-59
2023/07/26 11:28:57;;;;;;;;;;;29.90;49.10;;;;;;5042811;28;88336;-54
2023/07/26 11:31:22;;;;;;;;;;;29.90;49.10;;;;;;5042769;27;87989;-58
2023/07/26 11:33:48;;;;;;;;;;;30.00;49.20;;;;;;5043367;28;87049;-56
2023/07/26 11:36:20;;;;;;;;;;;30.00;49.30;;;;;;5040983;28;87834;-57
2023/07/26 11:38:46;;;;;;;;;;;30.00;49.20;;;;;;5042516;28;87810;-55
2023/07/26 11:41:18;;;;;;;;;;;30.00;49.10;;;;;;5044413;28;87348;-56
2023/07/26 11:43:44;;;;;;;;;;;30.10;49.30;;;;;;5042698;28;88120;-57
2023/07/26 11:46:10;;;;;;;;;;;30.10;49.20;;;;;;5042574;28;86404;-56
2023/07/26 11:48:35;;;;;;;;;;;30.10;49.20;;;;;;5040421;28;87157;-55
2023/07/26 11:51:03;;;;;;;;;;;30.10;49.20;;;;;;5035925;28;87154;-56
2023/07/26 11:53:29;;;;;;;;;;;30.10;49.30;;;;;;5042248;27;88074;-56
2023/07/26 11:55:55;;;;;;;;;;;30.10;49.30;;;;;;5041050;28;88952;-55
2023/07/26 11:58:21;;;;;;;;;;;30.10;49.20;;;;;;5039574;28;88288;-56
2023/07/26 12:00:48;;;;;;;;;;;30.20;49.30;;;;;;5036555;28;87181;-58
2023/07/26 12:03:14;;;;;;;;;;;30.20;49.30;;;;;;5041339;28;88793;-57
2023/07/26 12:05:44;;;;;;;;;;;30.20;49.30;;;;;;5041255;27;87318;-57
2023/07/26 12:08:10;;;;;;;;;;;30.20;49.20;;;;;;5041042;28;88424;-55
2023/07/26 12:10:40;;;;;;;;;;;30.20;49.10;;;;;;5042711;28;87309;-56
2023/07/26 12:13:09;;;;;;;;;;;30.20;49.00;;;;;;5042310;28;87171;-55
2023/07/26 12:15:47;;;;;;;;;;;30.20;49.40;;;;;;5039968;28;88795;-57
2023/07/26 12:18:13;;;;;;;;;;;30.20;50.00;;;;;;5038615;28;89183;-55
2023/07/26 12:20:53;;;;;;;;;;;30.20;49.40;;;;;;5038434;27;87185;-54
2023/07/26 12:23:18;;;;;;;;;;;30.30;49.40;;;;;;5040380;28;87414;-57
2023/07/26 12:25:44;;;;;;;;;;;30.30;49.30;;;;;;5043982;28;87284;-58
2023/07/26 12:28:09;;;;;;;;;;;30.30;49.30;;;;;;5042487;28;87639;-58
2023/07/26 12:30:35;;;;;;;;;;;30.30;49.40;;;;;;5038490;28;87981;-59
2023/07/26 12:33:09;;;;;;;;;;;30.40;49.30;;;;;;5039347;28;87111;-55
2023/07/26 12:35:35;;;;;;;;;;;30.40;49.30;;;;;;5036326;28;86877;-58
2023/07/26 12:38:23;;;;;;;;;;;30.40;49.20;;;;;;5041863;28;87920;-57
2023/07/26 12:40:50;;;;;;;;;;;30.40;49.30;;;;;;5038991;28;88803;-59
2023/07/26 12:43:21;;;;;;;;;;;30.50;49.40;;;;;;5036905;28;88661;-55
2023/07/26 12:45:47;;;;;;;;;;;30.50;49.30;;;;;;5041556;28;89338;-59
2023/07/26 12:48:12;;;;;;;;;;;30.50;49.20;;;;;;5046139;27;87190;-56
2023/07/26 12:50:41;;;;;;;;;;;30.50;49.30;;;;;;5037743;28;89047;-57
2023/07/26 12:53:08;;;;;;;;;;;30.50;49.40;;;;;;5036567;28;88685;-60
2023/07/26 12:55:33;;;;;;;;;;;30.50;49.30;;;;;;5042010;28;87348;-58
2023/07/26 12:57:59;;;;;;;;;;;30.50;49.20;;;;;;5040966;27;88103;-54
2023/07/26 13:00:25;;;;;;;;;;;30.50;49.20;;;;;;5039758;28;86396;-56
2023/07/26 13:02:51;;;;;;;;;;;30.60;49.30;;;;;;5040383;28;87602;-56
2023/07/26 13:05:18;;;;;;;;;;;30.60;49.40;;;;;;5038430;28;90868;-57
2023/07/26 13:07:47;;;;;;;;;;;30.60;49.30;;;;;;5043947;27;89208;-55
2023/07/26 13:10:13;;;;;;;;;;;30.70;49.50;;;;;;5038324;28;89406;-56
2023/07/26 13:12:38;;;;;;;;;;;30.70;49.50;;;;;;5036615;28;87121;-56
2023/07/26 13:15:04;;;;;;;;;;;30.70;49.50;;;;;;5041509;28;87681;-59
2023/07/26 13:17:29;;;;;;;;;;;30.70;49.50;;;;;;5040988;27;88227;-56
2023/07/26 13:19:55;;;;;;;;;;;30.70;49.30;;;;;;5036938;28;87635;-55
2023/07/26 13:22:20;;;;;;;;;;;30.70;49.30;;;;;;5038942;28;88624;-58
2023/07/26 13:24:46;;;;;;;;;;;30.80;49.40;;;;;;5041679;28;87262;-58
2023/07/26 13:27:11;;;;;;;;;;;30.80;49.20;;;;;;5041226;27;87793;-57
2023/07/26 13:29:37;;;;;;;;;;;30.80;49.30;;;;;;5041606;28;88153;-57
2023/07/26 13:32:03;;;;;;;;;;;30.80;49.30;;;;;;5041641;27;88021;-52
2023/07/26 13:34:28;;;;;;;;;;;30.80;49.40;;;;;;5043467;28;88373;-55
2023/07/26 13:36:57;;;;;;;;;;;30.80;49.50;;;;;;5044210;27;87236;-58
2023/07/26 13:39:22;;;;;;;;;;;30.90;49.50;;;;;;5041145;28;87307;-53
2023/07/26 13:41:47;;;;;;;;;;;30.90;49.50;;;;;;5045111;28;87046;-56
2023/07/26 13:44:14;;;;;;;;;;;30.90;49.40;;;;;;5046295;27;88005;-55
2023/07/26 13:46:40;;;;;;;;;;;31.00;49.60;;;;;;5041985;27;87253;-58
2023/07/26 13:49:06;;;;;;;;;;;31.00;49.50;;;;;;5040897;28;87407;-53
2023/07/26 13:51:31;;;;;;;;;;;31.10;49.60;;;;;;5047491;27;88012;-57
2023/07/26 13:53:57;;;;;;;;;;;31.10;49.50;;;;;;5045457;27;87458;-58
2023/07/26 13:56:22;;;;;;;;;;;31.10;49.70;;;;;;5041035;28;89277;-58
2023/07/26 13:58:48;;;;;;;;;;;31.10;49.60;;;;;;5040475;28;87571;-58
2023/07/26 14:01:14;;;;;;;;;;;31.20;49.60;;;;;;5044559;28;87346;-51
2023/07/26 14:03:39;;;;;;;;;;;31.20;49.50;;;;;;5044715;27;89272;-56
2023/07/26 14:06:05;;;;;;;;;;;31.20;49.60;;;;;;5040775;28;88347;-53
2023/07/26 14:08:30;;;;;;;;;;;31.30;49.80;;;;;;5039079;28;87511;-55
2023/07/26 14:10:56;;;;;;;;;;;31.30;49.70;;;;;;5043993;28;88425;-56
2023/07/26 14:13:21;;;;;;;;;;;31.20;49.60;;;;;;5048018;27;88344;-54